createdAt,value
2019-03-22T00:02:00.550Z,5.90
2019-03-22T00:04:28.927Z,5.82
2019-03-22T00:06:57.335Z,5.77
2019-03-22T00:09:25.714Z,5.93
2019-03-22T00:11:54.063Z,5.81
2019-03-22T00:14:22.439Z,5.84
2019-03-22T00:16:50.787Z,5.53
2019-03-22T00:19:19.130Z,5.70
2019-03-22T00:21:47.508Z,5.48
2019-03-22T00:24:15.863Z,5.32
2019-03-22T00:26:44.240Z,5.48
2019-03-22T00:29:12.593Z,5.50
2019-03-22T00:31:40.969Z,5.54
2019-03-22T00:34:09.316Z,5.68
2019-03-22T00:36:37.697Z,5.58
2019-03-22T00:39:06.423Z,5.60
2019-03-22T00:41:34.801Z,5.64
2019-03-22T00:44:03.146Z,5.49
2019-03-22T00:46:31.522Z,5.44
2019-03-22T00:48:59.868Z,5.39
2019-03-22T00:51:28.240Z,5.62
2019-03-22T00:53:56.581Z,5.54
2019-03-22T00:56:24.964Z,5.60
2019-03-22T00:58:53.302Z,5.70
2019-03-22T01:01:21.748Z,5.69
2019-03-22T01:03:50.086Z,5.61
2019-03-22T01:06:18.533Z,5.58
2019-03-22T01:08:46.953Z,5.62
2019-03-22T01:11:15.319Z,5.67
2019-03-22T01:13:43.666Z,5.57
2019-03-22T01:16:12.044Z,5.69
2019-03-22T01:18:40.405Z,5.70
2019-03-22T01:21:08.899Z,5.45
2019-03-22T01:23:37.242Z,5.46
2019-03-22T01:26:05.791Z,5.67
2019-03-22T01:28:34.138Z,5.66
2019-03-22T01:31:02.509Z,5.83
2019-03-22T01:33:30.861Z,5.59
2019-03-22T01:35:59.239Z,5.38
2019-03-22T01:38:27.588Z,5.55
2019-03-22T01:40:55.977Z,5.41
2019-03-22T01:43:24.714Z,5.47
2019-03-22T01:45:53.093Z,5.44
2019-03-22T01:48:21.445Z,5.53
2019-03-22T01:50:49.830Z,5.53
2019-03-22T01:53:18.182Z,5.44
2019-03-22T01:55:46.558Z,5.34
2019-03-22T01:58:14.903Z,5.29
2019-03-22T02:00:43.277Z,5.25
2019-03-22T02:03:11.626Z,5.12
2019-03-22T02:05:40.074Z,5.06
2019-03-22T02:08:08.422Z,5.08
2019-03-22T02:10:36.798Z,5.06
2019-03-22T02:13:05.147Z,4.94
2019-03-22T02:15:33.601Z,4.92
2019-03-22T02:18:01.942Z,4.95
2019-03-22T02:20:30.382Z,5.02
2019-03-22T02:22:58.726Z,4.98
2019-03-22T02:25:27.102Z,5.14
2019-03-22T02:28:03.696Z,5.19
2019-03-22T02:30:25.621Z,4.99
2019-03-22T02:32:53.976Z,5.06
2019-03-22T02:35:29.005Z,4.85
2019-03-22T02:37:52.480Z,4.87
2019-03-22T02:40:20.857Z,5.15
2019-03-22T02:42:49.267Z,4.99
2019-03-22T02:45:17.678Z,4.91
2019-03-22T02:47:46.146Z,5.02
2019-03-22T02:50:19.798Z,4.62
2019-03-22T02:52:45.350Z,4.47
2019-03-22T02:55:14.344Z,4.47
2019-03-22T02:57:42.698Z,4.59
2019-03-22T03:00:13.375Z,4.68
2019-03-22T03:02:41.730Z,4.56
2019-03-22T03:05:10.955Z,4.87
2019-03-22T03:07:39.370Z,4.76
2019-03-22T03:10:10.384Z,4.89
2019-03-22T03:12:38.742Z,4.62
2019-03-22T03:15:10.602Z,4.56
2019-03-22T03:17:39.058Z,4.62
2019-03-22T03:20:10.699Z,4.63
2019-03-22T03:22:39.031Z,4.70
2019-03-22T03:25:08.323Z,4.65
2019-03-22T03:27:37.058Z,4.77
2019-03-22T03:30:08.650Z,4.94
2019-03-22T03:32:37.030Z,4.83
2019-03-22T03:35:07.614Z,4.42
2019-03-22T03:37:35.961Z,4.68
2019-03-22T03:40:07.720Z,4.52
2019-03-22T03:42:36.093Z,4.59
2019-03-22T03:45:06.987Z,4.56
2019-03-22T03:47:35.433Z,4.50
2019-03-22T03:50:07.675Z,4.34
2019-03-22T03:52:39.361Z,4.41
2019-03-22T03:55:07.789Z,4.37
2019-03-22T03:57:36.174Z,4.48
2019-03-22T04:00:07.120Z,4.31
2019-03-22T04:02:35.505Z,4.02
2019-03-22T04:05:04.482Z,3.97
2019-03-22T04:07:32.866Z,4.03
2019-03-22T04:10:01.230Z,4.12
2019-03-22T04:12:29.592Z,4.27
2019-03-22T04:14:57.946Z,3.87
2019-03-22T04:17:26.332Z,3.99
2019-03-22T04:19:54.670Z,3.95
2019-03-22T04:22:23.039Z,3.84
2019-03-22T04:24:51.461Z,3.82
2019-03-22T04:27:19.902Z,4.15
2019-03-22T04:29:48.247Z,4.23
2019-03-22T04:32:16.650Z,4.21
2019-03-22T04:34:45.003Z,4.28
2019-03-22T04:37:13.389Z,4.19
2019-03-22T04:39:41.746Z,4.20
2019-03-22T04:42:10.306Z,4.34
2019-03-22T04:44:38.645Z,4.46
2019-03-22T04:47:07.600Z,4.35
2019-03-22T04:49:36.914Z,4.35
2019-03-22T04:52:05.944Z,4.16
2019-03-22T04:54:35.552Z,4.23
2019-03-22T04:57:05.411Z,4.32
2019-03-22T04:59:34.033Z,4.21
2019-03-22T05:02:03.077Z,3.91
2019-03-22T05:04:31.492Z,3.89
2019-03-22T05:07:00.041Z,4.00
2019-03-22T05:09:29.956Z,3.92
2019-03-22T05:12:00.141Z,3.79
2019-03-22T05:14:29.654Z,3.96
2019-03-22T05:16:58.405Z,3.88
2019-03-22T05:19:28.624Z,3.96
2019-03-22T05:21:57.642Z,3.50
2019-03-22T05:24:26.329Z,3.72
2019-03-22T05:26:56.380Z,3.60
2019-03-22T05:29:30.478Z,3.84
2019-03-22T05:31:58.283Z,3.50
2019-03-22T05:34:29.231Z,3.47
2019-03-22T05:36:57.581Z,3.38
2019-03-22T05:39:25.963Z,3.73
2019-03-22T05:41:54.313Z,3.95
2019-03-22T05:44:22.697Z,3.89
2019-03-22T05:46:51.038Z,3.82
2019-03-22T05:49:19.418Z,3.89
2019-03-22T05:51:47.773Z,3.65
2019-03-22T05:54:16.223Z,3.94
2019-03-22T05:56:45.246Z,4.00
2019-03-22T05:59:13.637Z,3.82
2019-03-22T06:01:45.213Z,3.87
2019-03-22T06:04:12.932Z,4.01
2019-03-22T06:06:41.277Z,4.03
2019-03-22T06:09:10.128Z,3.67
2019-03-22T06:11:38.480Z,3.53
2019-03-22T06:14:06.944Z,3.66
2019-03-22T06:16:36.852Z,3.72
2019-03-22T06:19:05.369Z,3.78
2019-03-22T06:21:33.720Z,3.78
2019-03-22T06:24:02.100Z,3.38
2019-03-22T06:26:30.522Z,3.77
2019-03-22T06:28:58.901Z,3.82
2019-03-22T06:31:27.255Z,3.86
2019-03-22T06:33:55.634Z,3.89
2019-03-22T06:36:24.289Z,4.28
2019-03-22T06:38:52.827Z,4.33
2019-03-22T06:41:21.399Z,4.23
2019-03-22T06:43:49.849Z,4.22
2019-03-22T06:46:18.197Z,4.43
2019-03-22T06:48:46.656Z,4.56
2019-03-22T06:51:15.006Z,4.50
2019-03-22T06:53:43.392Z,4.43
2019-03-22T06:56:11.742Z,4.46
2019-03-22T06:58:40.127Z,4.43
2019-03-22T07:01:08.471Z,4.62
2019-03-22T07:03:36.850Z,4.74
2019-03-22T07:06:05.288Z,4.74
2019-03-22T07:08:33.668Z,4.80
2019-03-22T07:11:02.014Z,4.78
2019-03-22T07:13:30.391Z,4.84
2019-03-22T07:15:58.746Z,4.88
2019-03-22T07:18:27.127Z,5.00
2019-03-22T07:20:55.488Z,4.99
2019-03-22T07:23:23.943Z,5.13
2019-03-22T07:25:52.292Z,5.26
2019-03-22T07:28:20.670Z,5.39
2019-03-22T07:30:49.023Z,5.54
2019-03-22T07:33:17.412Z,5.64
2019-03-22T07:35:45.762Z,5.67
2019-03-22T07:38:14.158Z,5.79
2019-03-22T07:40:42.503Z,5.93
2019-03-22T07:43:10.960Z,5.96
2019-03-22T07:45:39.382Z,6.10
2019-03-22T07:48:07.768Z,6.26
2019-03-22T07:50:36.116Z,6.31
2019-03-22T07:53:04.577Z,6.40
2019-03-22T07:55:32.929Z,6.42
2019-03-22T07:58:01.290Z,6.53
2019-03-22T08:00:31.154Z,6.60
2019-03-22T08:02:59.743Z,6.62
2019-03-22T08:05:28.138Z,6.65
2019-03-22T08:07:56.488Z,6.80
2019-03-22T08:10:24.881Z,6.93
2019-03-22T08:12:53.326Z,7.00
2019-03-22T08:15:27.133Z,7.05
2019-03-22T08:17:57.187Z,7.14
2019-03-22T08:20:25.822Z,7.19
2019-03-22T08:22:54.214Z,7.19
2019-03-22T08:25:22.561Z,7.25
2019-03-22T08:27:50.913Z,7.30
2019-03-22T08:30:19.276Z,7.49
2019-03-22T08:32:50.351Z,7.69
2019-03-22T08:35:17.725Z,7.79
2019-03-22T08:37:52.625Z,7.83
2019-03-22T08:40:16.258Z,7.95
2019-03-22T08:42:44.599Z,7.99
2019-03-22T08:45:13.152Z,8.01
2019-03-22T08:47:41.809Z,7.94
2019-03-22T08:50:10.444Z,7.88
2019-03-22T08:52:38.798Z,7.88
2019-03-22T08:55:07.328Z,7.91
2019-03-22T08:57:35.696Z,8.01
2019-03-22T09:00:06.909Z,8.13
2019-03-22T09:02:35.280Z,8.17
2019-03-22T09:05:04.780Z,8.18
2019-03-22T09:07:33.154Z,8.17
2019-03-22T09:10:01.547Z,8.16
2019-03-22T09:12:29.952Z,8.18
2019-03-22T09:14:58.360Z,8.21
2019-03-22T09:17:26.663Z,8.23
2019-03-22T09:19:55.150Z,8.32
2019-03-22T09:22:23.466Z,8.41
2019-03-22T09:24:51.860Z,8.85
2019-03-22T09:27:20.212Z,8.91
2019-03-22T09:29:48.884Z,8.69
2019-03-22T09:32:17.230Z,8.64
2019-03-22T09:34:45.698Z,8.64
2019-03-22T09:37:14.032Z,8.65
2019-03-22T09:39:42.413Z,9.00
2019-03-22T09:42:10.913Z,9.21
2019-03-22T09:44:46.346Z,9.01
2019-03-22T09:47:09.501Z,8.96
2019-03-22T09:49:37.969Z,9.01
2019-03-22T09:52:06.386Z,9.34
2019-03-22T09:54:35.139Z,9.49
2019-03-22T09:57:03.923Z,9.22
2019-03-22T09:59:32.387Z,9.31
2019-03-22T10:02:00.798Z,9.20
2019-03-22T10:04:29.210Z,9.21
2019-03-22T10:06:57.581Z,9.36
2019-03-22T10:09:25.988Z,10.04
2019-03-22T10:11:54.389Z,9.72
2019-03-22T10:14:24.883Z,9.58
2019-03-22T10:16:53.287Z,9.79
2019-03-22T10:19:21.661Z,9.72
2019-03-22T10:21:50.128Z,9.72
2019-03-22T10:24:19.150Z,10.14
2019-03-22T10:26:47.573Z,9.87
2019-03-22T10:29:15.957Z,10.03
2019-03-22T10:31:44.301Z,10.37
2019-03-22T10:34:12.649Z,10.61
2019-03-22T10:36:41.027Z,11.48
2019-03-22T10:39:09.600Z,11.04
2019-03-22T10:41:38.138Z,10.64
2019-03-22T10:44:06.564Z,10.77
2019-03-22T10:46:34.911Z,11.20
2019-03-22T10:49:03.267Z,10.82
2019-03-22T10:51:32.562Z,10.67
2019-03-22T10:54:00.949Z,10.67
2019-03-22T10:56:29.302Z,10.78
2019-03-22T10:58:57.642Z,10.54
2019-03-22T11:01:26.105Z,11.07
2019-03-22T11:03:54.480Z,10.85
2019-03-22T11:06:26.315Z,10.57
2019-03-22T11:08:53.537Z,11.14
2019-03-22T11:11:21.916Z,11.14
2019-03-22T11:13:50.276Z,10.96
2019-03-22T11:16:18.729Z,10.64
2019-03-22T11:18:47.081Z,10.54
2019-03-22T11:21:15.463Z,10.67
2019-03-22T11:23:43.805Z,10.72
2019-03-22T11:26:12.712Z,11.72
2019-03-22T11:28:41.061Z,10.91
2019-03-22T11:31:09.449Z,11.02
2019-03-22T11:33:37.869Z,11.39
2019-03-22T11:36:06.249Z,10.95
2019-03-22T11:38:34.598Z,11.19
2019-03-22T11:41:02.981Z,11.03
2019-03-22T11:43:31.339Z,11.50
2019-03-22T11:45:59.719Z,11.23
2019-03-22T11:48:28.116Z,11.65
2019-03-22T11:50:56.523Z,11.98
2019-03-22T11:53:24.875Z,11.29
2019-03-22T11:55:53.258Z,11.10
2019-03-22T11:58:21.605Z,11.00
2019-03-22T12:00:50.320Z,10.99
2019-03-22T12:03:18.665Z,11.09
2019-03-22T12:05:47.195Z,11.56
2019-03-22T12:08:15.611Z,11.40
2019-03-22T12:10:43.995Z,11.35
2019-03-22T12:13:12.332Z,11.27
2019-03-22T12:15:40.714Z,11.77
2019-03-22T12:18:09.061Z,11.90
2019-03-22T12:20:37.441Z,12.32
2019-03-22T12:23:06.408Z,11.95
2019-03-22T12:25:34.786Z,11.80
2019-03-22T12:28:05.000Z,11.69
2019-03-22T12:30:33.452Z,11.49
2019-03-22T12:33:01.879Z,12.30
2019-03-22T12:35:30.322Z,12.03
2019-03-22T12:37:59.579Z,11.88
2019-03-22T12:40:28.611Z,12.73
2019-03-22T12:42:57.876Z,12.65
2019-03-22T12:45:33.514Z,12.26
2019-03-22T12:48:01.937Z,13.19
2019-03-22T12:50:31.151Z,12.36
2019-03-22T12:52:59.750Z,12.18
2019-03-22T12:55:28.440Z,12.36
2019-03-22T12:57:59.366Z,12.56
2019-03-22T13:00:27.968Z,13.21
2019-03-22T13:02:56.394Z,14.08
2019-03-22T13:05:25.402Z,12.93
2019-03-22T13:07:53.832Z,12.51
2019-03-22T13:10:23.847Z,12.82
2019-03-22T13:12:53.243Z,13.40
2019-03-22T13:15:22.745Z,13.01
2019-03-22T13:17:53.119Z,13.52
2019-03-22T13:20:22.098Z,12.80
2019-03-22T13:22:55.009Z,12.51
2019-03-22T13:25:23.538Z,13.30
2019-03-22T13:27:51.893Z,14.09
2019-03-22T13:30:46.139Z,13.23
2019-03-22T13:33:16.284Z,12.91
2019-03-22T13:35:45.542Z,13.11
2019-03-22T13:38:14.804Z,13.20
2019-03-22T13:40:45.006Z,13.18
2019-03-22T13:43:14.258Z,13.09
2019-03-22T13:45:43.422Z,13.62
2019-03-22T13:48:12.762Z,13.84
2019-03-22T13:50:42.096Z,13.76
2019-03-22T13:53:11.569Z,13.79
2019-03-22T13:55:42.609Z,14.54
2019-03-22T13:58:13.110Z,14.27
2019-03-22T14:00:42.826Z,14.86
2019-03-22T14:03:12.674Z,14.90
2019-03-22T14:05:41.446Z,15.17
2019-03-22T14:08:10.211Z,14.85
2019-03-22T14:10:39.301Z,14.55
2019-03-22T14:13:10.463Z,15.58
2019-03-22T14:15:41.728Z,15.18
2019-03-22T14:18:10.649Z,15.43
2019-03-22T14:20:40.309Z,15.13
2019-03-22T14:23:08.694Z,15.50
2019-03-22T14:25:37.043Z,15.04
2019-03-22T14:28:05.502Z,14.35
2019-03-22T14:30:33.915Z,14.89
2019-03-22T14:33:12.587Z,15.09
2019-03-22T14:35:36.839Z,14.59
2019-03-22T14:38:05.289Z,14.82
2019-03-22T14:40:33.634Z,15.05
2019-03-22T14:43:02.083Z,15.60
2019-03-22T14:45:30.749Z,14.95
2019-03-22T14:47:59.162Z,15.39
2019-03-22T14:50:27.496Z,14.93
2019-03-22T14:52:55.878Z,14.84
2019-03-22T14:55:24.222Z,15.25
2019-03-22T14:57:53.137Z,15.14
2019-03-22T15:00:23.387Z,15.14
2019-03-22T15:02:51.847Z,15.04
2019-03-22T15:05:20.388Z,14.83
2019-03-22T15:07:48.849Z,14.77
2019-03-22T15:10:17.342Z,15.09
2019-03-22T15:12:46.063Z,14.95
2019-03-22T15:15:22.540Z,15.34
2019-03-22T15:17:58.797Z,15.74
2019-03-22T15:20:31.879Z,15.70
2019-03-22T15:23:10.838Z,15.62
2019-03-22T15:25:53.113Z,15.37
2019-03-22T15:28:41.771Z,15.27
2019-03-22T15:31:28.407Z,15.44
2019-03-22T15:34:09.352Z,15.34
2019-03-22T15:36:54.872Z,15.13
2019-03-22T15:39:41.452Z,15.39
2019-03-22T15:42:11.380Z,15.27
2019-03-22T15:44:39.863Z,15.08
2019-03-22T15:47:08.577Z,14.91
2019-03-22T15:49:37.952Z,15.50
2019-03-22T15:52:07.000Z,15.59
2019-03-22T15:54:40.653Z,15.74
2019-03-22T15:57:09.183Z,15.76
2019-03-22T15:59:38.239Z,15.75
2019-03-22T16:02:07.235Z,15.87
2019-03-22T16:04:37.656Z,15.77
2019-03-22T16:07:07.100Z,15.80
2019-03-22T16:09:35.962Z,15.98
2019-03-22T16:12:04.963Z,15.67
2019-03-22T16:14:33.469Z,15.43
2019-03-22T16:17:03.027Z,15.43
2019-03-22T16:19:31.382Z,15.31
2019-03-22T16:22:02.470Z,15.39
2019-03-22T16:24:31.434Z,14.91
2019-03-22T16:27:03.143Z,15.25
2019-03-22T16:29:31.725Z,14.85
2019-03-22T16:32:00.487Z,15.54
2019-03-22T16:34:31.994Z,15.36
2019-03-22T16:37:00.733Z,15.39
2019-03-22T16:39:29.749Z,15.42
2019-03-22T16:41:58.245Z,15.37
2019-03-22T16:44:27.859Z,15.07
2019-03-22T16:46:56.345Z,15.17
2019-03-22T16:49:25.173Z,14.63
2019-03-22T16:51:54.513Z,14.78
2019-03-22T16:54:22.986Z,14.39
2019-03-22T16:56:54.746Z,14.81
2019-03-22T16:59:23.638Z,15.05
2019-03-22T17:01:52.487Z,14.93
2019-03-22T17:04:20.949Z,14.85
2019-03-22T17:06:52.667Z,15.01
2019-03-22T17:09:23.074Z,15.25
2019-03-22T17:11:51.820Z,15.13
2019-03-22T17:14:21.805Z,15.06
2019-03-22T17:16:53.316Z,15.08
2019-03-22T17:19:23.719Z,14.93
2019-03-22T17:21:52.740Z,14.82
2019-03-22T17:24:21.749Z,14.55
2019-03-22T17:26:50.886Z,14.35
2019-03-22T17:29:22.688Z,14.24
2019-03-22T17:31:51.900Z,14.36
2019-03-22T17:34:21.005Z,14.11
2019-03-22T17:36:51.776Z,14.18
2019-03-22T17:39:21.340Z,13.95
2019-03-22T17:41:50.255Z,13.78
2019-03-22T17:44:19.291Z,13.74
2019-03-22T17:46:49.625Z,13.64
2019-03-22T17:49:18.654Z,13.58
2019-03-22T17:51:46.996Z,13.64
2019-03-22T17:54:15.511Z,13.63
2019-03-22T17:56:44.468Z,13.53
2019-03-22T17:59:12.852Z,13.09
2019-03-22T18:01:41.275Z,12.86
2019-03-22T18:04:09.664Z,12.75
2019-03-22T18:06:38.091Z,12.72
2019-03-22T18:09:06.744Z,12.69
2019-03-22T18:11:35.106Z,12.61
2019-03-22T18:14:03.494Z,12.50
2019-03-22T18:16:31.917Z,12.56
2019-03-22T18:19:00.312Z,12.62
2019-03-22T18:21:28.677Z,12.53
2019-03-22T18:23:57.153Z,12.34
2019-03-22T18:26:25.661Z,12.20
2019-03-22T18:28:54.052Z,12.10
2019-03-22T18:31:22.566Z,12.01
2019-03-22T18:33:51.031Z,11.98
2019-03-22T18:36:19.390Z,11.91
2019-03-22T18:38:47.783Z,11.86
2019-03-22T18:41:16.274Z,11.76
2019-03-22T18:43:44.667Z,11.77
2019-03-22T18:46:13.025Z,11.71
2019-03-22T18:48:41.414Z,11.64
2019-03-22T18:51:09.776Z,11.49
2019-03-22T18:53:38.573Z,11.39
2019-03-22T18:56:07.297Z,11.30
2019-03-22T18:58:35.691Z,11.24
2019-03-22T19:01:05.254Z,11.21
2019-03-22T19:03:33.631Z,11.22
2019-03-22T19:06:01.981Z,11.19
2019-03-22T19:08:30.365Z,11.10
2019-03-22T19:10:58.720Z,10.90
2019-03-22T19:13:30.830Z,10.87
2019-03-22T19:15:57.181Z,10.78
2019-03-22T19:18:25.580Z,10.71
2019-03-22T19:20:53.937Z,10.75
2019-03-22T19:23:22.297Z,10.66
2019-03-22T19:25:50.686Z,10.60
2019-03-22T19:28:19.333Z,10.56
2019-03-22T19:30:47.825Z,10.50
2019-03-22T19:33:16.220Z,10.38
2019-03-22T19:35:44.605Z,10.15
2019-03-22T19:38:12.963Z,10.10
2019-03-22T19:40:41.355Z,10.23
2019-03-22T19:43:09.740Z,10.16
2019-03-22T19:45:38.113Z,10.12
2019-03-22T19:48:06.538Z,10.16
2019-03-22T19:50:34.928Z,10.03
2019-03-22T19:53:03.286Z,9.68
2019-03-22T19:55:31.669Z,9.77
2019-03-22T19:58:00.013Z,9.56
2019-03-22T20:00:28.785Z,9.65
2019-03-22T20:02:57.152Z,9.69
2019-03-22T20:05:35.176Z,9.63
2019-03-22T20:08:03.605Z,9.67
2019-03-22T20:10:32.546Z,9.65
2019-03-22T20:13:01.448Z,9.63
2019-03-22T20:15:30.037Z,9.60
2019-03-22T20:17:58.403Z,9.49
2019-03-22T20:20:26.784Z,9.54
2019-03-22T20:22:55.203Z,9.40
2019-03-22T20:25:23.583Z,9.29
2019-03-22T20:27:51.928Z,9.14
2019-03-22T20:30:20.557Z,9.19
2019-03-22T20:32:48.905Z,9.13
2019-03-22T20:35:17.365Z,9.16
2019-03-22T20:37:46.020Z,9.16
2019-03-22T20:40:16.138Z,8.84
2019-03-22T20:42:44.563Z,8.55
2019-03-22T20:45:23.691Z,8.74
2019-03-22T20:47:44.945Z,8.44
2019-03-22T20:50:13.756Z,8.57
2019-03-22T20:52:42.199Z,8.51
2019-03-22T20:55:11.643Z,8.46
2019-03-22T20:57:41.056Z,8.56
2019-03-22T21:00:13.743Z,8.49
2019-03-22T21:03:03.764Z,8.41
2019-03-22T21:05:33.634Z,8.40
2019-03-22T21:08:02.220Z,8.50
2019-03-22T21:10:30.854Z,8.64
2019-03-22T21:12:59.379Z,8.55
2019-03-22T21:15:29.471Z,8.56
2019-03-22T21:17:59.357Z,8.64
2019-03-22T21:20:29.229Z,8.55
2019-03-22T21:22:57.824Z,8.51
2019-03-22T21:25:26.303Z,8.49
2019-03-22T21:27:54.795Z,8.66
2019-03-22T21:30:23.172Z,8.51
2019-03-22T21:32:54.498Z,8.44
2019-03-22T21:35:25.151Z,8.45
2019-03-22T21:37:56.075Z,8.29
2019-03-22T21:40:26.135Z,8.26
2019-03-22T21:42:54.551Z,8.20
2019-03-22T21:45:23.725Z,8.11
2019-03-22T21:47:52.788Z,8.01
2019-03-22T21:50:21.517Z,7.94
2019-03-22T21:52:51.044Z,7.92
2019-03-22T21:55:19.523Z,7.43
2019-03-22T21:57:48.273Z,7.77
2019-03-22T22:00:17.260Z,7.55
2019-03-22T22:02:45.854Z,7.70
2019-03-22T22:05:14.375Z,7.86
2019-03-22T22:07:43.265Z,7.66
2019-03-22T22:10:11.916Z,7.65
2019-03-22T22:12:41.617Z,7.73
2019-03-22T22:15:12.234Z,7.91
2019-03-22T22:17:43.811Z,7.96
2019-03-22T22:20:12.929Z,7.88
2019-03-22T22:22:41.422Z,7.93
2019-03-22T22:25:10.090Z,7.89
2019-03-22T22:27:38.729Z,7.68
2019-03-22T22:30:13.325Z,7.74
2019-03-22T22:32:42.165Z,7.83
2019-03-22T22:35:11.054Z,7.77
2019-03-22T22:37:39.990Z,7.44
2019-03-22T22:40:10.590Z,7.12
2019-03-22T22:42:39.143Z,7.03
2019-03-22T22:45:10.074Z,6.91
2019-03-22T22:47:39.338Z,6.94
2019-03-22T22:50:12.392Z,7.11
2019-03-22T22:52:43.115Z,7.10
2019-03-22T22:55:12.105Z,7.31
2019-03-22T22:57:40.525Z,7.25
2019-03-22T23:00:16.004Z,7.19
2019-03-22T23:02:44.746Z,7.03
2019-03-22T23:05:13.259Z,7.03
2019-03-22T23:07:41.781Z,7.24
2019-03-22T23:10:12.647Z,7.27
2019-03-22T23:12:40.839Z,7.34
2019-03-22T23:15:09.493Z,7.26
2019-03-22T23:17:37.846Z,7.15
2019-03-22T23:20:07.768Z,7.17
2019-03-22T23:22:36.127Z,7.17
2019-03-22T23:25:06.454Z,6.88
2019-03-22T23:27:35.077Z,6.76
2019-03-22T23:30:05.015Z,6.36
2019-03-22T23:32:33.359Z,6.43
2019-03-22T23:35:01.743Z,6.79
2019-03-22T23:37:30.092Z,7.01
2019-03-22T23:39:58.544Z,7.02
2019-03-22T23:42:26.887Z,7.16
2019-03-22T23:44:55.274Z,7.10
2019-03-22T23:47:23.622Z,6.92
2019-03-22T23:49:52.016Z,6.88
2019-03-22T23:52:20.360Z,6.90
2019-03-22T23:54:48.745Z,6.66
2019-03-22T23:57:17.164Z,6.64
2019-03-22T23:59:45.517Z,6.21
